رشت, ایران

03:22 PM IRST on فوریه 12, 2016 (GMT +0330)
Rasht | | Change Station
CLOSE
Current Station
Airport
Location: Rasht,
Elevation: -30 ft
Nearby Weather Stations

Elev -30 ft 37.33 °N, 49.61 °E | Updated 22 minutes ago

Partly Cloudy
ابرهاى پراكنده
52 °F
Feels Like 52 °F
N
0
باد متغير باد from شمال

امروز
High -- | Low -- °F
--% Chance of Precip.
دیروز
High -- | Low -- °F
Precip. -- در
فشار 30.24 در
ديد 5.0 مايل، ميل (در برابر كيلومتر
ابری Few 2500 ft
قطره شبنم 37 °F
رطوبت 58%
بارش باران 0.00 در
برف عمیق Not available.
7:04 AM 5:47 PM
Waxing Crescent, 20% visible
METAR OIGG 121130Z 00000KT 8000 FEW025 11/03 Q1024
فشار 30.24 در
ديد 5.0 مايل، ميل (در برابر كيلومتر
ابری Few 2500 ft
قطره شبنم 37 °F
رطوبت 58%
بارش باران 0.00 در
برف عمیق Not available.
7:04 AM 5:47 PM
Waxing Crescent, 20% visible
METAR OIGG 121130Z 00000KT 8000 FEW025 11/03 Q1024

10-Day Weather Forecast

No radar image for this location.
×

Almanac

ستاره شناسی

Feb. 12, 2016 Rise Set
وقت حقیقی
تاریک و روشن اجتماعی
تاریک روشن دریایی
شفق و فلق نجومی
ماه
میزان روشنایی روز
طول روز
Tomorrow will be .
, % of the Moon is Illuminated

Today's Extremes

Country Highs Country Lows

Community

WunderPhotos

Upload Photos

1,892,293 photos uploaded!

WunderBlog® & News

Nearby

تمیزی هوا

  تمیزی هوا AQ Index آلاینده
Not available.

عمق برف

Station Depth Elevation

Earthquake Activity

شهر Distance Mag. Time & Date
Minimum magnitude displayed is 2.5.

Coastal Water Temperatures

منطقه درجه حرارت

Stations

Nearby Weather Stations

Station Location دما باد سرد قطره شبنم رطوبت باد Precip. Elev ارتقا دادن Type